Huvudsida
METAR-TAF:

METAR-TAF

Flygplatser :

Lahore, Pakistan

latitud: 31-31N, longitud: 074-24E, höjd: 216 m

Aktuellt väderrapport

Denna rapport gjordes för 13 minuter sedan, klockan 15:25 UTC
Vind 5 kt från väst/nordväst
Temperatur 21°C
Fuktighet 49%
Tryck 1014 hPa
Sikt: 7000 m

METAR: OPLA 291525Z 29005KT 7000 NSC 21/10 Q1014 RMK QFE988 RMK A29.98

Tid: 20:38 (15:38 UTC)

Väderprognos

Denna rapport gjordes för 5 timmar och 53 minuter sedan, klockan 09:45 UTC
Prognos gäller från 29 kl. 12 UTC till 30 kl. 18 UTC
Vind 4 kt från väst/nordväst
Sikt: 4000 m
rök
Från 30 kl. 0300 UTC
Vind 8 kt från nordväst
Sikt: 5000 m
Spridda moln på en höjd av 10000 ft
torrdis
Blir
från 30 kl. 15 UTC till 30 kl. 18 UTC
Vind 4 kt från nord
Sikt: 4000 m
Få moln på en höjd av 4000 ft
Spridda moln på en höjd av 10000 ft
rök

TAF: OPLA 290945Z 2912/3018 29004KT 4000 FU NSC TX29/2010Z TN17/3001Z FM300300 31008KT 5000 HZ SCT100 BECMG 3015/3018 36004KT 4000 FU FEW040 SCT100

Aktuella väderrapporter och prognoser från 4000 flygplatser (METAR- och TAF-rapporter).

De tillgängliga stationerna syns som gula och röda prickar på kartan.

För musen över prickarna för att se namnen på stationerna.

Klicka sedan för att få väderrapporter och prognoser.

För att ändra kartan: Klicka på de gröna knapparna med ett svart kors på för att zooma in; den gröna knappen med ett streck på för att zooma ut; eller på de gröna pilarna för angränsande kartor.


METAR-TAF: